Station: Laverton  

  Atmospheric Gas Attenuation - ITU Rec 676-11   ----------------- dB/100km -----------------
Date Time Temp RH % AH g/m3 Dew Point Wind Direction Speed kph Gust kph Barometer mB Rainfall Since 9am 24GHz 47GHz 76GHz 122GHz 134GHz 241GHz
08/05 12:30 16.1 62 8.5 8.8 24 37 1023.5 0 19.3 25.5 38.7 101.5 95.1 327.0
08/05 12:20 16.6 62 8.76 9.3 20 26 1023.7 0 19.8 25.7 39.5 103.5 97.8 336.7
08/05 12:10 16.1 65 8.91 9.5 20 28 1023.8 0 20.1 26.1 40.3 105.8 100.4 345.7
08/05 12:00 16.5 67 9.41 10.4 24 37 1023.7 0 21.2 26.8 42.1 110.6 106.4 366.8
08/05 11:50 15.7 71 9.5 10.5 30 33 1023.9 0 21.4 27.2 42.9 112.7 108.7 374.8
08/05 11:40 16.2 71 9.79 10.9 28 35 1023.8 0 22.0 27.5 43.8 115.1 111.9 385.9
08/05 11:30 15.6 78 10.37 11.8 20 32 1023.8 0 23.3 28.7 46.6 122.4 120.7 416.6
08/05 11:20 15 80 10.26 11.6 22 26 1023.9 0 23.1 28.7 46.5 122.1 120.1 414.5
08/05 11:10 15.2 75 9.73 10.8 24 28 1024 0 21.9 27.7 44.2 115.9 112.6 388.1
08/05 11:00 15.1 78 10.06 11.3 19 28 1023.8 0 22.6 28.3 45.6 119.7 117.2 404.3
08/05 10:50 14.5 83 10.32 11.6 20 28 1023.8 0 23.2 29.0 47.0 123.6 121.7 420.1
08/05 10:40 13.9 85 10.19 11.4 20 24 1023.8 0 23.0 28.9 46.8 123.1 120.9 417.0
08/05 10:30 15 75 9.62 10.6 22 37 1023.5 0 21.7 27.6 43.8 115.0 111.3 383.7
08/05 10:20 15 75 9.62 10.6 22 35 1023.5 0 21.7 27.6 43.8 115.0 111.3 383.7
08/05 10:10 14.8 74 9.37 10.2 32 37 1023.4 0 21.2 27.2 42.9 112.5 108.2 372.8
08/05 10:00 15.2 74 9.6 10.6 26 35 1023.1 0 21.6 27.5 43.6 114.4 110.7 381.7
08/05 09:50 15.2 71 9.22 10 32 39 1023.2 0 20.8 26.9 42.0 110.3 105.6 363.9
08/05 09:40 15.1 73 9.42 10.3 26 33 1023.1 0 21.3 27.2 42.9 112.6 108.4 373.7
08/05 09:30 15 74 9.49 10.4 26 41 1022.7 0 21.4 27.3 43.2 113.4 109.5 377.3
08/05 09:20 15 76 9.75 10.8 17 20 1022.8 0 22.0 27.8 44.3 116.3 113.0 389.7
08/05 09:10 14.5 77 9.58 10.5 26 33 1022.8 0 21.6 27.7 43.9 115.2 111.4 384.1
08/05 09:00 14.4 79 9.77 10.8 20 32 1022.7 0 22.0 28.0 44.7 117.4 114.2 393.6
08/05 08:50 13.9 81 9.71 10.7 30 35 1022.8 3 21.9 28.1 44.7 117.5 114.1 393.3
08/05 08:40 14 81 9.77 10.8 28 33 1022.9 3 22.1 28.1 44.9 118.1 114.8 395.7
08/05 08:30 13.7 84 9.95 11 22 33 1022.6 3 22.5 28.5 45.9 120.5 117.7 405.9
08/05 08:20 13.5 86 10.06 11.2 22 26 1022.6 3 22.7 28.8 46.5 122.1 119.6 412.4
08/05 08:10 13.1 89 10.16 11.3 17 22 1022.6 3 23.0 29.1 47.1 123.9 121.6 419.4
08/05 08:00 13 90 10.21 11.4 20 35 1022.4 3 23.1 29.2 47.4 124.6 122.5 422.4
08/05 07:50 12.8 90 10.08 11.2 19 26 1022.1 3 22.8 29.0 46.9 123.4 120.9 416.9
08/05 07:40 12.6 90 9.96 11 19 22 1021.9 3 22.6 28.9 46.5 122.3 119.5 412.0
08/05 07:30 12.6 91 10.07 11.2 17 24 1021.8 3 22.8 29.1 47.0 123.5 121.0 417.4
08/05 07:20 12.6 91 10.07 11.2 19 24 1021.8 3 22.8 29.1 47.0 123.5 121.0 417.4
08/05 07:10 12.7 91 10.13 11.3 20 28 1021.7 3 22.9 29.1 47.2 124.0 121.7 419.8
08/05 07:00 12.8 92 10.31 11.5 20 32 1021.7 3 23.3 29.4 47.9 126.0 124.1 428.3
08/05 06:50 12.9 90 10.14 11.3 22 28 1021.6 3 22.9 29.1 47.1 123.8 121.5 419.2
08/05 06:40 13.1 87 9.93 11 28 39 1021.5 3 22.5 28.6 46.1 121.1 118.2 407.7
08/05 06:30 13.1 88 10.04 11.2 24 39 1021.5 3 22.7 28.8 46.6 122.3 119.8 413.1
08/05 06:20 13.3 85 9.82 10.8 32 39 1021.4 3 22.2 28.4 45.5 119.5 116.4 401.3
08/05 06:10 13.3 84 9.71 10.7 28 35 1021.3 3 22.0 28.2 45.0 118.3 114.8 395.9
08/05 06:00 13.3 85 9.82 10.8 26 39 1021.2 3 22.2 28.4 45.5 119.5 116.4 401.2
08/05 05:50 13.3 85 9.82 10.8 20 24 1021.1 3 22.2 28.4 45.5 119.5 116.4 401.2
08/05 05:40 13.3 85 9.82 10.8 24 28 1021 3 22.2 28.4 45.5 119.5 116.4 401.1
08/05 05:30 13.3 85 9.82 10.8 24 39 1020.9 3 22.2 28.4 45.5 119.5 116.3 401.1
08/05 05:20 13.4 85 9.88 10.9 19 26 1020.8 3 22.3 28.4 45.7 120.0 117.0 403.5
08/05 05:10 13.4 85 9.88 10.9 22 28 1020.8 3 22.3 28.4 45.7 120.0 117.0 403.5
08/05 05:00 13.4 85 9.88 10.9 24 37 1020.6 3 22.3 28.4 45.6 119.9 117.0 403.4
08/05 04:50 13.4 86 10 11.1 24 32 1020.6 3 22.6 28.6 46.2 121.3 118.7 409.3
08/05 04:40 13.4 86 10 11.1 24 28 1020.6 3 22.6 28.6 46.2 121.3 118.7 409.3
08/05 04:30 13.3 87 10.05 11.2 22 33 1020.5 3 22.7 28.8 46.4 122.0 119.5 412.3
08/05 04:20 13.2 88 10.1 11.3 15 19 1020.4 3 22.8 28.9 46.7 122.7 120.4 415.2
08/05 04:10 13.2 88 10.1 11.3 20 28 1020.2 3 22.8 28.9 46.7 122.7 120.4 415.2
08/05 04:00 13.1 88 10.04 11.2 20 33 1020 3 22.7 28.8 46.5 122.2 119.7 412.7
08/05 03:50 13.1 88 10.04 11.2 22 28 1020.1 3 22.7 28.8 46.5 122.2 119.7 412.7
08/05 03:40 13.3 86 9.94 11 20 26 1020.1 3 22.5 28.5 45.9 120.7 117.9 406.7
08/05 03:30 13.2 86 9.88 10.9 26 37 1020 3 22.4 28.5 45.7 120.2 117.3 404.3
08/05 03:20 13.1 86 9.81 10.8 24 28 1019.9 3 22.2 28.4 45.5 119.5 116.4 401.3
08/05 03:10 12.9 87 9.81 10.8 20 26 1020 3 22.2 28.4 45.6 119.9 116.7 402.4
08/05 03:00 12.8 88 9.86 10.9 20 30 1019.9 3 22.3 28.6 45.9 120.6 117.6 405.4
08/05 02:50 12.8 88 9.86 10.9 26 32 1020 3 22.3 28.6 45.9 120.6 117.6 405.4
08/05 02:40 12.8 86 9.63 10.5 20 26 1019.9 3 21.8 28.2 44.9 118.0 114.3 394.1
08/05 02:30 12.8 86 9.63 10.5 22 39 1020 3 21.8 28.2 44.9 118.0 114.4 394.1
08/05 02:20 12.8 86 9.63 10.5 32 41 1019.9 3 21.8 28.2 44.9 118.0 114.3 394.1
08/05 02:10 12.6 86 9.52 10.3 32 43 1020 3 21.6 28.0 44.5 117.0 113.1 389.8
08/05 02:00 12.6 86 9.52 10.3 24 35 1020 3 21.6 28.0 44.5 117.0 113.1 389.8
08/05 01:50 12.6 86 9.52 10.3 24 32 1020.2 3 21.6 28.1 44.6 117.0 113.1 389.8
08/05 01:40 12.6 85 9.4 10.1 28 32 1020.3 3 21.4 27.9 44.1 115.7 111.5 384.0
08/05 01:30 12.5 85 9.35 10 26 39 1020.3 3 21.3 27.8 43.9 115.3 110.9 382.1
08/05 01:20 12.3 86 9.34 10 28 35 1020.5 3 21.2 27.9 44.0 115.5 111.1 382.6
08/05 01:10 12.2 87 9.39 10.1 24 28 1020.6 3 21.4 28.0 44.3 116.2 111.9 385.6
08/05 01:00 12.1 86 9.22 9.8 24 35 1020.5 3 21.0 27.7 43.6 114.4 109.7 377.8
08/05 00:50 12.1 86 9.22 9.8 26 35 1020.6 3 21.0 27.7 43.6 114.4 109.7 377.8
08/05 00:40 12 85 9.06 9.6 24 28 1020.6 3 20.7 27.5 43.0 112.8 107.6 370.5
08/05 00:30 12.3 84 9.12 9.7 28 43 1020.7 3 20.8 27.5 43.1 113.0 108.1 372.0
08/05 00:20 12.3 84 9.12 9.7 32 43 1020.8 3 20.8 27.5 43.1 113.0 108.1 372.0
08/05 00:10 12.1 84 9.01 9.5 24 30 1020.9 3 20.5 27.4 42.7 112.1 106.8 367.7
08/05 00:00 12.2 83 8.96 9.4 26 39 1020.9 3 20.4 27.3 42.5 111.4 106.0 364.8
07/05 23:50 12.2 82 8.85 9.2 24 30 1020.9 3 20.2 27.1 42.0 110.2 104.5 359.6
07/05 23:40 12.2 82 8.85 9.2 28 35 1020.9 3 20.2 27.1 42.0 110.2 104.5 359.6
07/05 23:30 12.1 82 8.79 9.1 26 41 1021.1 3 20.1 27.0 41.8 109.7 103.8 357.2
07/05 23:20 12 83 8.85 9.2 22 28 1021.2 3 20.2 27.1 42.1 110.5 104.8 360.6
07/05 23:10 12 82 8.74 9 35 41 1021.5 3 20.0 27.0 41.7 109.3 103.3 355.4
07/05 23:00 11.9 82 8.69 8.9 24 46 1021.7 3 19.9 26.9 41.5 108.9 102.8 353.5
07/05 22:50 11.9 82 8.69 8.9 24 35 1021.7 3 19.9 26.9 41.5 108.9 102.8 353.5
07/05 22:40 11.8 82 8.63 8.8 26 33 1021.8 3 19.7 26.9 41.3 108.4 102.1 351.1
07/05 22:30 11.6 82 8.52 8.6 22 32 1021.9 3 19.5 26.7 41.0 107.5 100.9 346.8
07/05 22:20 11.6 82 8.52 8.6 24 30 1022 3 19.5 26.7 41.0 107.5 100.9 346.8
07/05 22:10 11.5 82 8.47 8.5 28 35 1022 3 19.4 26.7 40.8 107.1 100.3 344.8
07/05 22:00 11.3 81 8.26 8.2 22 33 1022 3 19.0 26.4 40.1 105.0 97.7 335.7
07/05 21:50 11.3 81 8.26 8.2 22 28 1022 3 19.0 26.4 40.1 105.0 97.7 335.7
07/05 21:40 11.3 81 8.26 8.2 20 26 1022.1 3 19.0 26.4 40.1 105.0 97.7 335.7
07/05 21:30 11.2 81 8.21 8.1 20 28 1022.3 3 18.9 26.4 39.9 104.6 97.2 333.8
07/05 21:20 11.2 80 8.11 7.9 19 28 1022.3 3 18.7 26.2 39.5 103.5 95.8 329.1
07/05 21:10 11.3 80 8.16 8 24 28 1022.2 3 18.8 26.2 39.7 103.9 96.4 331.0
07/05 21:00 11.2 81 8.21 8.1 20 28 1022.2 3 18.9 26.4 39.9 104.6 97.2 333.8
07/05 20:50 11.2 80 8.11 7.9 24 28 1022.3 3 18.7 26.2 39.5 103.5 95.8 329.1
07/05 20:40 11.2 79 8.01 7.7 22 30 1022.4 3 18.4 26.0 39.1 102.4 94.5 324.4
07/05 20:30 11.3 78 7.96 7.6 24 39 1022.5 3 18.3 25.9 38.9 101.8 93.7 321.6
07/05 20:20 11.2 78 7.91 7.5 26 35 1022.6 3 18.2 25.9 38.7 101.4 93.2 319.7
07/05 20:10 11.3 78 7.96 7.6 26 41 1022.9 3 18.3 25.9 38.9 101.8 93.7 321.7
07/05 20:00 11.2 78 7.91 7.5 20 33 1022.9 3 18.2 25.9 38.7 101.4 93.2 319.8

Last Refresh: 08-May-2026 12:07:18

Bureau of Meteorology